createdAt,value
2022-09-16T00:01:13.231Z,75.23
2022-09-16T00:03:41.491Z,74.50
2022-09-16T00:06:20.367Z,74.95
2022-09-16T00:08:48.623Z,75.26
2022-09-16T00:11:17.929Z,73.99
2022-09-16T00:13:46.675Z,74.78
2022-09-16T00:16:20.558Z,74.10
2022-09-16T00:18:49.253Z,75.07
2022-09-16T00:21:18.455Z,74.73
2022-09-16T00:23:46.329Z,74.69
2022-09-16T00:26:14.321Z,75.75
2022-09-16T00:28:42.200Z,75.91
2022-09-16T00:31:10.082Z,74.96
2022-09-16T00:33:37.884Z,74.73
2022-09-16T00:36:08.925Z,74.49
2022-09-16T00:38:38.377Z,73.58
2022-09-16T00:41:07.325Z,74.59
2022-09-16T00:43:51.978Z,76.25
2022-09-16T00:46:27.532Z,76.40
2022-09-16T00:48:55.687Z,75.73
2022-09-16T00:51:25.336Z,74.33
2022-09-16T00:54:02.080Z,74.27
2022-09-16T00:56:35.433Z,75.07
2022-09-16T00:59:10.890Z,75.25
2022-09-16T01:01:42.482Z,75.36
2022-09-16T01:04:18.253Z,74.21
2022-09-16T01:06:46.876Z,75.97
2022-09-16T01:09:17.730Z,76.34
2022-09-16T01:11:45.475Z,75.67
2022-09-16T01:14:32.929Z,75.07
2022-09-16T01:17:10.534Z,76.90
2022-09-16T01:20:06.896Z,75.38
2022-09-16T01:23:02.820Z,76.53
2022-09-16T01:25:56.658Z,77.92
2022-09-16T01:29:05.452Z,77.42
2022-09-16T01:31:44.131Z,78.18
2022-09-16T01:34:26.167Z,77.30
2022-09-16T01:37:05.153Z,77.67
2022-09-16T01:39:45.798Z,79.00
2022-09-16T01:42:31.114Z,79.76
2022-09-16T01:45:07.302Z,76.94
2022-09-16T01:47:45.983Z,77.68
2022-09-16T01:50:23.853Z,78.54
2022-09-16T01:53:09.102Z,78.53
2022-09-16T01:55:42.672Z,78.62
2022-09-16T01:58:23.782Z,80.96
2022-09-16T02:01:01.588Z,79.69
2022-09-16T02:03:35.958Z,79.00
2022-09-16T02:06:09.664Z,79.45
2022-09-16T02:08:44.696Z,78.68
2022-09-16T02:11:17.285Z,80.74
2022-09-16T02:13:50.481Z,79.78
2022-09-16T02:16:27.180Z,79.09
2022-09-16T02:19:02.179Z,78.74
2022-09-16T02:21:34.368Z,79.67
2022-09-16T02:24:09.795Z,80.31
2022-09-16T02:26:43.480Z,79.91
2022-09-16T02:29:20.104Z,78.57
2022-09-16T02:31:53.612Z,80.84
2022-09-16T02:34:31.262Z,80.80
2022-09-16T02:37:07.932Z,80.48
2022-09-16T02:39:41.708Z,80.56
2022-09-16T02:42:09.613Z,80.72
2022-09-16T02:44:37.762Z,79.31
2022-09-16T02:47:17.066Z,80.46
2022-09-16T02:49:56.940Z,82.18
2022-09-16T02:52:37.356Z,81.56
2022-09-16T02:55:16.710Z,81.19
2022-09-16T02:57:44.520Z,79.85
2022-09-16T03:00:13.026Z,80.16
2022-09-16T03:02:40.898Z,80.08
2022-09-16T03:05:10.559Z,81.36
2022-09-16T03:07:41.929Z,81.90
2022-09-16T03:10:13.194Z,81.19
2022-09-16T03:12:55.288Z,82.60
2022-09-16T03:15:45.171Z,83.37
2022-09-16T03:18:36.127Z,81.39
2022-09-16T03:21:20.696Z,82.65
2022-09-16T03:24:02.943Z,86.13
2022-09-16T03:26:46.697Z,88.27
2022-09-16T03:29:26.296Z,84.74
2022-09-16T03:32:04.527Z,82.17
2022-09-16T03:34:40.981Z,82.66
2022-09-16T03:37:19.674Z,81.34
2022-09-16T03:39:53.598Z,81.20
2022-09-16T03:42:23.333Z,81.24
2022-09-16T03:44:51.429Z,82.53
2022-09-16T03:47:19.393Z,81.70
2022-09-16T03:49:47.270Z,81.48
2022-09-16T03:52:18.672Z,82.11
2022-09-16T03:54:46.549Z,82.61
2022-09-16T03:57:14.310Z,81.02
2022-09-16T03:59:42.253Z,81.15
2022-09-16T04:02:10.048Z,86.35
2022-09-16T04:04:37.809Z,85.41
2022-09-16T04:07:05.901Z,85.17
2022-09-16T04:09:37.241Z,85.83
2022-09-16T04:12:07.598Z,85.44
2022-09-16T04:14:35.764Z,84.88
2022-09-16T04:17:04.431Z,82.87
2022-09-16T04:19:34.226Z,83.43
2022-09-16T04:22:02.050Z,82.06
2022-09-16T04:24:30.044Z,80.91
2022-09-16T04:26:59.256Z,81.46
2022-09-16T04:29:27.813Z,83.65
2022-09-16T04:31:55.855Z,82.52
2022-09-16T04:34:23.670Z,83.09
2022-09-16T04:36:51.527Z,81.44
2022-09-16T04:39:19.286Z,82.98
2022-09-16T04:41:47.140Z,85.40
2022-09-16T04:44:16.405Z,83.78
2022-09-16T04:46:44.185Z,83.64
2022-09-16T04:49:13.382Z,82.42
2022-09-16T04:51:41.515Z,81.72
2022-09-16T04:54:09.519Z,82.44
2022-09-16T04:56:37.423Z,80.98
2022-09-16T04:59:07.040Z,81.52
2022-09-16T05:01:39.889Z,81.68
2022-09-16T05:04:10.074Z,80.59
2022-09-16T05:06:40.486Z,80.60
2022-09-16T05:09:10.957Z,81.93
2022-09-16T05:11:41.642Z,80.46
2022-09-16T05:14:18.124Z,83.22
2022-09-16T05:16:47.688Z,81.68
2022-09-16T05:19:16.113Z,82.84
2022-09-16T05:21:44.043Z,82.08
2022-09-16T05:24:15.037Z,82.71
2022-09-16T05:26:44.422Z,82.05
2022-09-16T05:29:15.607Z,84.92
2022-09-16T05:31:47.258Z,85.06
2022-09-16T05:34:19.399Z,81.42
2022-09-16T05:36:54.201Z,80.26
2022-09-16T05:39:24.844Z,81.47
2022-09-16T05:41:56.747Z,79.32
2022-09-16T05:44:25.636Z,81.31
2022-09-16T05:46:54.178Z,84.06
2022-09-16T05:49:23.813Z,83.05
2022-09-16T05:51:52.905Z,82.41
2022-09-16T05:54:23.750Z,79.58
2022-09-16T05:56:51.934Z,81.06
2022-09-16T05:59:20.038Z,80.49
2022-09-16T06:01:47.886Z,80.02
2022-09-16T06:04:16.953Z,78.29
2022-09-16T06:06:47.703Z,82.87
2022-09-16T06:09:18.374Z,79.93
2022-09-16T06:11:48.539Z,79.30
2022-09-16T06:14:18.215Z,79.04
2022-09-16T06:16:47.115Z,80.06
2022-09-16T06:19:17.693Z,78.29
2022-09-16T06:21:47.909Z,77.65
2022-09-16T06:24:18.044Z,79.84
2022-09-16T06:26:47.783Z,77.70
2022-09-16T06:29:16.995Z,77.47
2022-09-16T06:31:44.841Z,77.13
2022-09-16T06:34:18.353Z,79.98
2022-09-16T06:36:48.198Z,78.02
2022-09-16T06:39:17.883Z,75.65
2022-09-16T06:41:45.993Z,74.48
2022-09-16T06:44:14.113Z,74.68
2022-09-16T06:46:42.153Z,75.02
2022-09-16T06:49:11.359Z,74.48
2022-09-16T06:51:39.479Z,75.76
2022-09-16T06:54:09.629Z,78.11
2022-09-16T06:56:39.556Z,75.49
2022-09-16T06:59:08.642Z,74.56
2022-09-16T07:01:36.805Z,73.88
2022-09-16T07:04:08.259Z,74.97
2022-09-16T07:07:07.405Z,76.33
2022-09-16T07:09:27.185Z,72.87
2022-09-16T07:11:57.036Z,74.10
2022-09-16T07:14:24.907Z,75.96
2022-09-16T07:16:53.264Z,74.76
2022-09-16T07:19:21.478Z,77.08
2022-09-16T07:21:49.291Z,76.58
2022-09-16T07:24:17.207Z,76.36
2022-09-16T07:26:47.175Z,74.31
2022-09-16T07:29:20.450Z,73.63
2022-09-16T07:31:48.236Z,72.96
2022-09-16T07:34:16.017Z,74.55
2022-09-16T07:36:46.282Z,74.53
2022-09-16T07:39:17.008Z,73.25
2022-09-16T07:41:49.439Z,73.36
2022-09-16T07:44:23.431Z,72.61
2022-09-16T07:46:51.664Z,76.35
2022-09-16T07:49:20.031Z,73.00
2022-09-16T07:51:48.407Z,72.60
2022-09-16T07:54:19.847Z,69.97
2022-09-16T07:56:48.981Z,71.82
2022-09-16T07:59:20.461Z,70.63
2022-09-16T08:01:50.445Z,72.20
2022-09-16T08:04:20.024Z,70.26
2022-09-16T08:06:48.885Z,71.44
2022-09-16T08:12:10.683Z,70.21
2022-09-16T08:14:38.513Z,69.32
2022-09-16T08:17:07.490Z,69.39
2022-09-16T08:19:35.327Z,70.22
2022-09-16T08:22:03.152Z,72.58
2022-09-16T08:24:31.048Z,70.07
2022-09-16T08:26:58.805Z,70.18
2022-09-16T08:29:28.117Z,71.39
2022-09-16T08:31:56.241Z,69.76
2022-09-16T08:34:24.239Z,70.95
2022-09-16T08:36:52.294Z,70.04
2022-09-16T08:39:21.582Z,69.47
2022-09-16T08:42:23.276Z,68.91
2022-09-16T08:45:04.406Z,67.74
2022-09-16T08:47:50.915Z,70.34
2022-09-16T08:50:29.911Z,72.48
2022-09-16T08:53:00.841Z,70.16
2022-09-16T08:55:35.410Z,72.01
2022-09-16T08:58:08.236Z,70.10
2022-09-16T09:00:40.354Z,68.53
2022-09-16T09:03:19.777Z,68.96
2022-09-16T09:05:53.974Z,69.37
2022-09-16T09:08:41.031Z,67.88
2022-09-16T09:11:19.307Z,68.19
2022-09-16T09:14:06.974Z,67.84
2022-09-16T09:16:48.932Z,64.15
2022-09-16T09:19:45.162Z,64.49
2022-09-16T09:22:31.190Z,64.27
2022-09-16T09:25:27.706Z,69.66
2022-09-16T09:28:13.498Z,70.92
2022-09-16T09:30:53.586Z,67.04
2022-09-16T09:33:46.793Z,66.08
2022-09-16T09:36:40.254Z,62.88
2022-09-16T09:39:39.786Z,64.34
2022-09-16T09:42:18.544Z,62.17
2022-09-16T09:45:01.378Z,61.81
2022-09-16T09:47:37.887Z,60.54
2022-09-16T09:50:19.833Z,63.68
2022-09-16T09:52:58.716Z,63.26
2022-09-16T09:55:33.390Z,61.49
2022-09-16T09:58:18.329Z,59.50
2022-09-16T10:00:46.560Z,59.59
2022-09-16T10:03:19.098Z,56.89
2022-09-16T10:05:49.133Z,55.37
2022-09-16T10:08:26.246Z,54.69
2022-09-16T10:10:57.161Z,56.89
2022-09-16T10:13:26.880Z,57.04
2022-09-16T10:16:11.183Z,56.24
2022-09-16T10:18:39.631Z,57.28
2022-09-16T10:21:13.869Z,56.37
2022-09-16T10:23:42.529Z,57.49
2022-09-16T10:26:22.308Z,58.34
2022-09-16T10:29:00.373Z,56.99
2022-09-16T10:31:36.269Z,56.47
2022-09-16T10:34:14.009Z,56.99
2022-09-16T10:36:43.343Z,55.67
2022-09-16T10:39:24.729Z,55.69
2022-09-16T10:41:53.013Z,56.25
2022-09-16T10:44:27.032Z,55.35
2022-09-16T10:46:58.822Z,56.03
2022-09-16T10:49:39.116Z,55.41
2022-09-16T10:52:18.157Z,55.16
2022-09-16T10:54:46.745Z,56.04
2022-09-16T10:57:25.581Z,55.20
2022-09-16T11:00:12.005Z,55.86
2022-09-16T11:03:08.143Z,53.94
2022-09-16T11:05:48.428Z,54.53
2022-09-16T11:08:34.733Z,54.95
2022-09-16T11:11:14.233Z,54.88
2022-09-16T11:13:55.679Z,55.33
2022-09-16T11:16:55.348Z,54.64
2022-09-16T11:19:34.470Z,54.71
2022-09-16T11:22:25.166Z,54.05
2022-09-16T11:25:30.434Z,53.55
2022-09-16T11:28:19.324Z,54.25
2022-09-16T11:31:01.933Z,53.36
2022-09-16T11:33:41.444Z,53.77
2022-09-16T11:36:30.904Z,53.90
2022-09-16T11:39:19.806Z,52.31
2022-09-16T11:42:01.866Z,52.43
2022-09-16T11:44:42.991Z,53.04
2022-09-16T11:47:40.848Z,52.04
2022-09-16T11:50:37.579Z,52.04
2022-09-16T11:53:54.048Z,52.40
2022-09-16T11:56:37.158Z,54.17
2022-09-16T11:59:17.219Z,54.25
2022-09-16T12:01:52.483Z,54.84
2022-09-16T12:04:33.829Z,55.10
2022-09-16T12:07:14.064Z,54.80
2022-09-16T12:09:51.201Z,54.46
2022-09-16T12:12:23.885Z,53.48
2022-09-16T12:15:04.816Z,52.48
2022-09-16T12:17:37.945Z,53.67
2022-09-16T12:20:16.768Z,52.22
2022-09-16T12:22:51.114Z,51.27
2022-09-16T12:25:27.162Z,51.38
2022-09-16T12:28:03.546Z,51.12
2022-09-16T12:30:39.670Z,51.06
2022-09-16T12:33:17.283Z,50.70
2022-09-16T12:35:58.354Z,51.15
2022-09-16T12:38:26.645Z,51.62
2022-09-16T12:41:22.246Z,51.00
2022-09-16T12:44:33.577Z,50.46
2022-09-16T12:47:54.092Z,50.06
2022-09-16T12:50:48.314Z,51.33
2022-09-16T12:53:49.707Z,51.48
2022-09-16T12:56:44.274Z,50.64
2022-09-16T12:59:42.700Z,50.16
2022-09-16T13:02:18.915Z,50.28
2022-09-16T13:04:50.961Z,49.78
2022-09-16T13:07:26.874Z,50.46
2022-09-16T13:10:03.862Z,49.86
2022-09-16T13:12:44.025Z,49.51
2022-09-16T13:15:28.277Z,49.57
2022-09-16T13:18:09.330Z,50.25
2022-09-16T13:20:42.393Z,48.99
2022-09-16T13:23:20.079Z,47.84
2022-09-16T13:25:59.099Z,47.20
2022-09-16T13:28:38.682Z,46.96
2022-09-16T13:31:29.326Z,47.35
2022-09-16T13:34:17.536Z,47.12
2022-09-16T13:36:45.518Z,46.69
2022-09-16T13:39:16.339Z,47.76
2022-09-16T13:41:47.233Z,47.28
2022-09-16T13:44:40.166Z,48.20
2022-09-16T13:47:17.277Z,46.99
2022-09-16T13:49:53.308Z,47.69
2022-09-16T13:52:30.820Z,47.81
2022-09-16T13:55:11.325Z,48.03
2022-09-16T13:57:58.752Z,48.24
2022-09-16T14:00:34.006Z,47.27
2022-09-16T14:03:34.919Z,46.83
2022-09-16T14:06:23.567Z,46.71
2022-09-16T14:09:03.246Z,47.01
2022-09-16T14:11:42.482Z,45.95
2022-09-16T14:14:36.168Z,45.78
2022-09-16T14:17:15.591Z,45.67
2022-09-16T14:19:46.754Z,44.65
2022-09-16T14:22:21.718Z,44.17
2022-09-16T14:24:56.458Z,45.65
2022-09-16T14:27:39.406Z,45.10
2022-09-16T14:30:16.880Z,44.09
2022-09-16T14:32:46.873Z,44.89
2022-09-16T14:35:21.150Z,44.81
2022-09-16T14:37:58.460Z,43.90
2022-09-16T14:40:29.237Z,43.16
2022-09-16T14:43:03.173Z,43.39
2022-09-16T14:45:33.783Z,43.30
2022-09-16T14:48:08.974Z,43.79
2022-09-16T14:50:45.120Z,44.46
2022-09-16T14:53:35.355Z,41.75
2022-09-16T14:56:04.462Z,41.84
2022-09-16T14:58:34.906Z,42.36
2022-09-16T15:01:12.450Z,42.74
2022-09-16T15:03:49.885Z,43.43
2022-09-16T15:06:23.753Z,43.33
2022-09-16T15:08:59.416Z,43.54
2022-09-16T15:11:47.697Z,43.46
2022-09-16T15:14:16.900Z,42.92
2022-09-16T15:16:49.845Z,42.91
2022-09-16T15:19:22.845Z,44.10
2022-09-16T15:21:52.075Z,45.04
2022-09-16T15:24:28.279Z,45.30
2022-09-16T15:26:58.254Z,44.27
2022-09-16T15:29:33.860Z,44.56
2022-09-16T15:32:19.358Z,45.10
2022-09-16T15:34:47.444Z,46.02
2022-09-16T15:37:33.688Z,47.87
2022-09-16T15:40:23.892Z,45.77
2022-09-16T15:43:06.399Z,45.73
2022-09-16T15:45:34.718Z,45.36
2022-09-16T15:48:08.688Z,45.20
2022-09-16T15:50:44.870Z,45.52
2022-09-16T15:53:19.333Z,48.39
2022-09-16T15:56:01.385Z,48.59
2022-09-16T15:58:40.882Z,47.57
2022-09-16T16:01:16.758Z,47.46
2022-09-16T16:03:55.432Z,47.17
2022-09-16T16:06:52.357Z,46.78
2022-09-16T16:09:41.400Z,47.41
2022-09-16T16:12:13.911Z,47.00
2022-09-16T16:14:42.935Z,47.07
2022-09-16T16:17:15.246Z,47.38
2022-09-16T16:19:43.796Z,47.40
2022-09-16T16:22:14.020Z,47.94
2022-09-16T16:24:42.087Z,48.50
2022-09-16T16:27:10.580Z,48.11
2022-09-16T16:29:39.273Z,47.48
2022-09-16T16:32:10.621Z,47.41
2022-09-16T16:34:40.792Z,48.33
2022-09-16T16:37:16.153Z,47.59
2022-09-16T16:39:53.226Z,48.11
2022-09-16T16:42:23.169Z,46.93
2022-09-16T16:44:51.580Z,49.27
2022-09-16T16:47:19.572Z,48.17
2022-09-16T16:49:51.400Z,48.97
2022-09-16T16:52:19.486Z,50.98
2022-09-16T16:54:54.249Z,50.61
2022-09-16T16:57:22.133Z,50.00
2022-09-16T16:59:49.956Z,50.56
2022-09-16T17:02:17.745Z,51.17
2022-09-16T17:04:45.568Z,51.62
2022-09-16T17:07:28.919Z,51.32
2022-09-16T17:10:13.020Z,51.43
2022-09-16T17:12:40.924Z,49.14
2022-09-16T17:15:09.854Z,50.38
2022-09-16T17:17:37.840Z,51.58
2022-09-16T17:20:06.914Z,49.83
2022-09-16T17:22:34.817Z,50.24
2022-09-16T17:25:02.590Z,49.68
2022-09-16T17:27:31.706Z,49.74
2022-09-16T17:30:01.077Z,49.82
2022-09-16T17:32:28.952Z,51.02
2022-09-16T17:34:57.072Z,51.60
2022-09-16T17:37:24.867Z,50.79
2022-09-16T17:39:52.697Z,51.15
2022-09-16T17:42:20.939Z,52.49
2022-09-16T17:44:50.055Z,52.71
2022-09-16T17:47:17.805Z,53.44
2022-09-16T17:49:45.621Z,54.87
2022-09-16T17:52:13.415Z,54.65
2022-09-16T17:54:42.050Z,54.84
2022-09-16T17:57:09.845Z,54.09
2022-09-16T17:59:37.631Z,55.52
2022-09-16T18:02:07.601Z,54.86
2022-09-16T18:04:35.462Z,53.84
2022-09-16T18:07:03.451Z,56.31
2022-09-16T18:09:32.441Z,54.12
2022-09-16T18:12:00.227Z,54.39
2022-09-16T18:14:28.312Z,56.18
2022-09-16T18:16:56.188Z,56.06
2022-09-16T18:19:25.413Z,57.70
2022-09-16T18:21:53.352Z,55.63
2022-09-16T18:24:21.276Z,55.54
2022-09-16T18:26:49.481Z,54.50
2022-09-16T18:29:17.571Z,57.26
2022-09-16T18:31:48.763Z,57.38
2022-09-16T18:34:18.222Z,56.19
2022-09-16T18:36:47.402Z,58.60
2022-09-16T18:39:18.296Z,58.13
2022-09-16T18:41:47.182Z,58.60
2022-09-16T18:44:19.535Z,59.63
2022-09-16T18:46:48.133Z,58.69
2022-09-16T18:49:18.631Z,56.80
2022-09-16T18:51:52.138Z,56.42
2022-09-16T18:54:24.844Z,57.05
2022-09-16T18:56:55.823Z,57.50
2022-09-16T18:59:28.679Z,58.32
2022-09-16T19:01:59.389Z,57.73
2022-09-16T19:04:31.460Z,57.77
2022-09-16T19:07:07.953Z,57.91
2022-09-16T19:09:39.716Z,58.24
2022-09-16T19:12:09.513Z,57.62
2022-09-16T19:14:44.651Z,57.97
2022-09-16T19:17:15.757Z,59.06
2022-09-16T19:19:43.653Z,58.69
2022-09-16T19:22:13.175Z,58.82
2022-09-16T19:24:42.143Z,58.87
2022-09-16T19:27:10.038Z,60.12
2022-09-16T19:29:37.839Z,62.02
2022-09-16T19:32:06.363Z,65.55
2022-09-16T19:34:34.275Z,65.17
2022-09-16T19:37:02.223Z,63.77
2022-09-16T19:39:31.822Z,66.26
2022-09-16T19:42:03.457Z,66.23
2022-09-16T19:44:31.905Z,67.89
2022-09-16T19:46:59.793Z,68.50
2022-09-16T19:49:27.592Z,73.16
2022-09-16T19:51:55.452Z,72.20
2022-09-16T19:54:24.531Z,70.87
2022-09-16T19:56:56.561Z,72.36
2022-09-16T19:59:24.476Z,75.23
2022-09-16T20:01:53.176Z,80.58
2022-09-16T20:04:21.421Z,80.79
2022-09-16T20:06:52.533Z,78.73
2022-09-16T20:09:20.607Z,86.97
2022-09-16T20:11:49.826Z,81.33
2022-09-16T20:14:22.223Z,78.47
2022-09-16T20:16:51.925Z,80.90
2022-09-16T20:19:21.270Z,83.54
2022-09-16T20:21:49.834Z,82.15
2022-09-16T20:24:20.434Z,84.51
2022-09-16T20:26:52.622Z,84.85
2022-09-16T20:29:23.023Z,84.22
2022-09-16T20:31:54.031Z,85.74
2022-09-16T20:34:24.219Z,87.20
2022-09-16T20:36:52.749Z,90.44
2022-09-16T20:39:23.093Z,91.48
2022-09-16T20:41:52.768Z,86.32
2022-09-16T20:44:22.068Z,87.36
2022-09-16T20:46:50.136Z,86.36
2022-09-16T20:49:22.877Z,88.89
2022-09-16T20:51:50.839Z,91.70
2022-09-16T20:54:18.899Z,88.29
2022-09-16T20:56:49.343Z,86.11
2022-09-16T20:59:22.528Z,91.53
2022-09-16T21:01:52.001Z,89.69
2022-09-16T21:04:21.745Z,89.87
2022-09-16T21:06:49.845Z,95.06
2022-09-16T21:09:19.030Z,95.90
2022-09-16T21:11:47.421Z,97.59
2022-09-16T21:14:17.599Z,98.25
2022-09-16T21:16:47.998Z,93.28
2022-09-16T21:19:18.166Z,91.38
2022-09-16T21:21:47.884Z,89.69
2022-09-16T21:24:17.022Z,88.38
2022-09-16T21:26:46.697Z,87.77
2022-09-16T21:29:17.520Z,88.05
2022-09-16T21:31:45.999Z,85.85
2022-09-16T21:34:18.697Z,87.29
2022-09-16T21:36:46.817Z,88.31
2022-09-16T21:39:18.861Z,94.80
2022-09-16T21:41:48.984Z,95.09
2022-09-16T21:44:19.919Z,93.81
2022-09-16T21:46:51.693Z,89.17
2022-09-16T21:49:25.236Z,89.99
2022-09-16T21:51:56.320Z,90.35
2022-09-16T21:54:25.715Z,91.60
2022-09-16T21:56:56.691Z,90.46
2022-09-16T21:59:24.772Z,88.77
2022-09-16T22:02:01.382Z,90.50
2022-09-16T22:04:32.728Z,86.93
2022-09-16T22:07:00.528Z,86.46
2022-09-16T22:09:28.490Z,91.15
2022-09-16T22:11:56.625Z,91.06
2022-09-16T22:14:24.418Z,87.85
2022-09-16T22:16:52.248Z,87.60
2022-09-16T22:19:20.890Z,81.52
2022-09-16T22:21:52.202Z,82.30
2022-09-16T22:24:21.532Z,84.37
2022-09-16T22:26:51.348Z,81.78
2022-09-16T22:29:19.360Z,80.70
2022-09-16T22:31:47.419Z,83.26
2022-09-16T22:34:15.755Z,85.78
2022-09-16T22:36:43.605Z,80.05
2022-09-16T22:39:16.607Z,86.78
2022-09-16T22:41:45.029Z,80.65
2022-09-16T22:44:13.525Z,82.42
2022-09-16T22:46:44.592Z,83.80
2022-09-16T22:49:13.326Z,86.50
2022-09-16T22:51:41.541Z,89.35
2022-09-16T22:54:11.853Z,91.64
2022-09-16T22:56:41.164Z,89.81
2022-09-16T22:59:16.586Z,91.05
2022-09-16T23:01:44.505Z,86.68
2022-09-16T23:04:12.470Z,88.56
2022-09-16T23:06:41.332Z,89.65
2022-09-16T23:09:13.237Z,91.54
2022-09-16T23:11:42.345Z,92.72
2022-09-16T23:14:14.578Z,92.92
2022-09-16T23:16:42.568Z,94.76
2022-09-16T23:19:13.119Z,93.30
2022-09-16T23:21:42.114Z,90.45
2022-09-16T23:24:17.359Z,90.98
2022-09-16T23:26:49.045Z,94.05
2022-09-16T23:29:19.074Z,94.08
2022-09-16T23:31:47.114Z,94.96
2022-09-16T23:34:20.832Z,91.62
2022-09-16T23:36:49.620Z,91.33
2022-09-16T23:39:18.466Z,90.42
2022-09-16T23:41:48.076Z,92.05
2022-09-16T23:44:17.007Z,93.78
2022-09-16T23:46:45.761Z,93.69
2022-09-16T23:49:16.874Z,96.04
2022-09-16T23:51:44.700Z,94.78
2022-09-16T23:54:12.534Z,95.37
2022-09-16T23:56:40.340Z,93.52
2022-09-16T23:59:09.456Z,92.13
